createdAt,value
2018-08-03T00:00:07.324Z,60.51
2018-08-03T00:02:36.150Z,60.50
2018-08-03T00:05:04.961Z,60.64
2018-08-03T00:07:33.799Z,61.15
2018-08-03T00:10:02.663Z,60.49
2018-08-03T00:12:31.431Z,60.08
2018-08-03T00:15:00.377Z,60.62
2018-08-03T00:17:29.177Z,60.48
2018-08-03T00:19:57.989Z,60.39
2018-08-03T00:22:26.844Z,60.51
2018-08-03T00:24:55.662Z,60.23
2018-08-03T00:27:24.531Z,61.04
2018-08-03T00:29:53.345Z,61.15
2018-08-03T00:32:22.250Z,60.54
2018-08-03T00:34:51.125Z,60.36
2018-08-03T00:37:19.991Z,61.26
2018-08-03T00:39:48.807Z,61.22
2018-08-03T00:42:17.622Z,61.02
2018-08-03T00:44:46.661Z,61.29
2018-08-03T00:47:15.480Z,61.90
2018-08-03T00:49:44.280Z,62.04
2018-08-03T00:52:13.159Z,61.89
2018-08-03T00:54:41.957Z,62.12
2018-08-03T00:57:10.761Z,62.19
2018-08-03T00:59:39.637Z,62.05
2018-08-03T01:02:08.484Z,62.38
2018-08-03T01:04:37.465Z,61.98
2018-08-03T01:07:06.321Z,62.11
2018-08-03T01:09:35.164Z,62.35
2018-08-03T01:12:04.386Z,62.44
2018-08-03T01:14:33.184Z,62.48
2018-08-03T01:17:02.106Z,62.57
2018-08-03T01:19:30.980Z,62.30
2018-08-03T01:21:59.758Z,62.47
2018-08-03T01:24:28.651Z,62.66
2018-08-03T01:26:57.495Z,62.23
2018-08-03T01:29:26.489Z,62.69
2018-08-03T01:31:55.366Z,62.53
2018-08-03T01:34:24.233Z,62.08
2018-08-03T01:36:53.039Z,62.66
2018-08-03T01:39:21.915Z,62.57
2018-08-03T01:41:50.734Z,62.67
2018-08-03T01:44:19.650Z,63.25
2018-08-03T01:46:48.468Z,63.18
2018-08-03T01:49:17.315Z,62.68
2018-08-03T01:51:46.130Z,63.03
2018-08-03T01:54:14.943Z,62.80
2018-08-03T01:56:43.792Z,63.08
2018-08-03T01:59:12.685Z,63.59
2018-08-03T02:01:41.463Z,64.05
2018-08-03T02:04:10.380Z,63.49
2018-08-03T02:06:39.275Z,63.56
2018-08-03T02:09:09.340Z,63.74
2018-08-03T02:11:38.646Z,64.86
2018-08-03T02:14:07.504Z,64.37
2018-08-03T02:16:36.426Z,64.41
2018-08-03T02:19:05.301Z,64.54
2018-08-03T02:21:34.080Z,65.16
2018-08-03T02:24:02.903Z,64.22
2018-08-03T02:26:31.763Z,65.28
2018-08-03T02:29:00.561Z,65.77
2018-08-03T02:31:29.351Z,66.04
2018-08-03T02:33:58.201Z,66.04
2018-08-03T02:36:27.057Z,64.54
2018-08-03T02:38:55.897Z,64.59
2018-08-03T02:41:24.769Z,63.99
2018-08-03T02:43:53.663Z,63.73
2018-08-03T02:46:22.539Z,63.83
2018-08-03T02:48:51.352Z,65.69
2018-08-03T02:51:20.160Z,66.92
2018-08-03T02:53:49.003Z,67.99
2018-08-03T02:56:17.779Z,68.96
2018-08-03T02:58:46.593Z,69.67
2018-08-03T03:01:15.506Z,69.46
2018-08-03T03:03:44.369Z,69.33
2018-08-03T03:06:13.189Z,69.60
2018-08-03T03:08:42.070Z,69.05
2018-08-03T03:11:10.934Z,68.04
2018-08-03T03:13:39.827Z,64.88
2018-08-03T03:16:08.644Z,65.38
2018-08-03T03:18:38.727Z,66.60
2018-08-03T03:21:07.759Z,66.25
2018-08-03T03:23:36.641Z,66.63
2018-08-03T03:26:06.907Z,67.55
2018-08-03T03:28:35.697Z,66.16
2018-08-03T03:31:04.594Z,63.74
2018-08-03T03:33:33.568Z,63.53
2018-08-03T03:36:02.342Z,64.24
2018-08-03T03:38:31.172Z,64.58
2018-08-03T03:41:00.073Z,65.53
2018-08-03T03:43:28.926Z,66.25
2018-08-03T03:45:57.740Z,66.03
2018-08-03T03:48:26.604Z,67.20
2018-08-03T03:50:55.455Z,66.93
2018-08-03T03:53:24.304Z,66.41
2018-08-03T03:55:53.144Z,65.77
2018-08-03T03:58:21.972Z,66.37
2018-08-03T04:00:50.840Z,65.26
2018-08-03T04:03:19.783Z,66.03
2018-08-03T04:05:48.577Z,65.54
2018-08-03T04:08:17.504Z,64.91
2018-08-03T04:10:46.430Z,64.23
2018-08-03T04:13:15.264Z,62.97
2018-08-03T04:15:44.118Z,61.93
2018-08-03T04:18:20.302Z,61.70
2018-08-03T04:20:49.777Z,60.96
2018-08-03T04:23:19.038Z,61.95
2018-08-03T04:25:47.875Z,61.77
2018-08-03T04:28:16.715Z,62.35
2018-08-03T04:30:46.786Z,62.20
2018-08-03T04:33:15.589Z,62.11
2018-08-03T04:35:44.392Z,61.51
2018-08-03T04:38:13.252Z,61.35
2018-08-03T04:40:42.040Z,61.07
2018-08-03T04:43:12.273Z,61.37
2018-08-03T04:45:42.333Z,61.36
2018-08-03T04:48:11.240Z,61.87
2018-08-03T04:50:40.114Z,62.07
2018-08-03T04:53:08.961Z,61.43
2018-08-03T04:55:37.762Z,61.10
2018-08-03T04:58:06.612Z,61.04
2018-08-03T05:00:35.492Z,60.62
2018-08-03T05:03:04.356Z,61.62
2018-08-03T05:05:33.240Z,61.31
2018-08-03T05:08:02.123Z,59.83
2018-08-03T05:10:30.927Z,59.05
2018-08-03T05:12:59.756Z,57.98
2018-08-03T05:15:28.581Z,60.15
2018-08-03T05:17:57.361Z,60.01
2018-08-03T05:20:26.251Z,59.50
2018-08-03T05:22:55.199Z,60.37
2018-08-03T05:25:24.117Z,59.48
2018-08-03T05:27:52.955Z,58.98
2018-08-03T05:30:21.903Z,58.58
2018-08-03T05:32:50.799Z,58.73
2018-08-03T05:35:19.710Z,57.95
2018-08-03T05:37:48.522Z,58.11
2018-08-03T05:40:17.488Z,57.63
2018-08-03T05:42:46.326Z,56.69
2018-08-03T05:45:15.325Z,55.87
2018-08-03T05:47:44.201Z,55.33
2018-08-03T05:50:13.060Z,55.24
2018-08-03T05:52:41.835Z,56.13
2018-08-03T05:55:10.741Z,53.88
2018-08-03T05:57:39.586Z,54.99
2018-08-03T06:00:08.510Z,50.18
2018-08-03T06:02:37.371Z,48.21
2018-08-03T06:05:07.267Z,48.85
2018-08-03T06:07:36.712Z,49.46
2018-08-03T06:10:06.916Z,47.17
2018-08-03T06:12:35.664Z,48.01
2018-08-03T06:15:05.473Z,47.51
2018-08-03T06:17:34.319Z,47.47
2018-08-03T06:20:03.208Z,49.45
2018-08-03T06:22:32.072Z,48.58
2018-08-03T06:25:02.423Z,47.58
2018-08-03T06:27:31.289Z,47.04
2018-08-03T06:30:00.130Z,47.53
2018-08-03T06:32:30.238Z,47.30
2018-08-03T06:34:59.112Z,48.14
2018-08-03T06:37:46.515Z,48.22
2018-08-03T06:40:18.810Z,46.03
2018-08-03T06:42:52.285Z,46.42
2018-08-03T06:45:23.244Z,46.28
2018-08-03T06:48:00.030Z,45.12
2018-08-03T06:50:33.806Z,45.34
2018-08-03T06:53:15.760Z,43.65
2018-08-03T06:55:49.689Z,42.66
2018-08-03T06:58:29.312Z,42.24
2018-08-03T07:01:02.244Z,41.44
2018-08-03T07:03:36.994Z,42.04
2018-08-03T07:06:11.258Z,42.08
2018-08-03T07:08:44.522Z,41.14
2018-08-03T07:11:17.866Z,42.22
2018-08-03T07:13:51.704Z,41.13
2018-08-03T07:16:25.482Z,38.96
2018-08-03T07:19:00.993Z,40.28
2018-08-03T07:21:35.617Z,39.71
2018-08-03T07:24:11.241Z,39.08
2018-08-03T07:26:43.138Z,39.83
2018-08-03T07:29:16.908Z,40.19
2018-08-03T07:31:53.239Z,39.59
2018-08-03T07:34:28.618Z,39.57
2018-08-03T07:37:01.974Z,39.81
2018-08-03T07:39:34.106Z,40.87
2018-08-03T07:42:10.369Z,39.98
2018-08-03T07:47:19.686Z,39.85
2018-08-03T07:58:51.889Z,39.47
2018-08-03T08:01:24.876Z,39.11
2018-08-03T08:04:00.752Z,39.94
2018-08-03T08:06:32.675Z,41.17
2018-08-03T08:09:06.779Z,39.93
2018-08-03T08:11:37.930Z,38.82
2018-08-03T08:14:10.460Z,41.31
2018-08-03T08:16:46.540Z,40.64
2018-08-03T08:19:18.016Z,40.93
2018-08-03T08:21:48.655Z,39.40
2018-08-03T08:24:25.430Z,39.37
2018-08-03T08:26:59.131Z,39.83
2018-08-03T08:29:37.060Z,40.06
2018-08-03T08:32:12.910Z,40.29
2018-08-03T08:34:49.815Z,41.44
2018-08-03T08:37:24.677Z,41.60
2018-08-03T08:39:57.147Z,42.62
2018-08-03T08:42:29.314Z,43.30
2018-08-03T08:45:00.890Z,42.69
2018-08-03T08:47:35.921Z,42.51
2018-08-03T08:50:10.119Z,41.03
2018-08-03T08:52:48.182Z,40.74
2018-08-03T08:55:20.893Z,40.42
2018-08-03T08:57:52.753Z,41.64
2018-08-03T09:00:32.492Z,40.74
2018-08-03T09:03:06.303Z,41.32
2018-08-03T09:05:40.841Z,41.03
2018-08-03T09:08:12.459Z,42.47
2018-08-03T09:10:45.802Z,41.65
2018-08-03T09:13:19.482Z,42.38
2018-08-03T09:15:53.634Z,41.84
2018-08-03T09:18:26.703Z,40.88
2018-08-03T09:21:00.488Z,42.82
2018-08-03T09:23:31.105Z,42.42
2018-08-03T09:26:04.034Z,43.50
2018-08-03T09:28:36.567Z,43.49
2018-08-03T09:31:08.626Z,44.41
2018-08-03T09:33:43.161Z,43.40
2018-08-03T09:36:17.113Z,44.91
2018-08-03T09:38:48.039Z,43.67
2018-08-03T09:41:20.097Z,44.36
2018-08-03T09:43:54.913Z,44.88
2018-08-03T09:46:34.111Z,44.07
2018-08-03T09:49:08.392Z,44.77
2018-08-03T09:51:41.202Z,43.34
2018-08-03T09:54:14.472Z,44.56
2018-08-03T09:56:49.931Z,44.07
2018-08-03T09:59:25.169Z,43.85
2018-08-03T10:01:57.619Z,43.61
2018-08-03T10:04:27.375Z,43.52
2018-08-03T10:06:58.400Z,44.50
2018-08-03T10:09:32.279Z,42.44
2018-08-03T10:12:08.621Z,42.48
2018-08-03T10:14:41.950Z,42.21
2018-08-03T10:17:23.469Z,44.79
2018-08-03T10:19:58.347Z,44.44
2018-08-03T10:22:30.525Z,44.87
2018-08-03T10:25:02.479Z,44.96
2018-08-03T10:27:37.667Z,44.55
2018-08-03T10:30:08.555Z,44.69
2018-08-03T10:32:43.484Z,44.97
2018-08-03T10:35:16.135Z,44.44
2018-08-03T10:37:47.608Z,44.27
2018-08-03T10:40:20.051Z,44.52
2018-08-03T10:42:56.977Z,44.36
2018-08-03T10:45:36.245Z,44.77
2018-08-03T10:48:20.500Z,44.33
2018-08-03T10:50:54.671Z,43.32
2018-08-03T10:53:25.638Z,43.26
2018-08-03T10:56:00.289Z,41.15
2018-08-03T10:58:34.834Z,41.13
2018-08-03T11:01:08.651Z,40.56
2018-08-03T11:03:42.915Z,42.16
2018-08-03T11:06:20.900Z,42.31
2018-08-03T11:08:53.630Z,43.03
2018-08-03T11:11:31.158Z,43.54
2018-08-03T11:14:07.296Z,44.52
2018-08-03T11:16:42.012Z,45.04
2018-08-03T11:19:13.654Z,43.77
2018-08-03T11:21:52.702Z,43.96
2018-08-03T11:24:29.614Z,43.58
2018-08-03T11:27:03.367Z,41.91
2018-08-03T11:29:35.989Z,41.45
2018-08-03T11:32:14.710Z,40.39
2018-08-03T11:34:47.119Z,42.24
2018-08-03T11:37:22.166Z,43.57
2018-08-03T11:39:57.588Z,44.17
2018-08-03T11:45:21.266Z,44.61
2018-08-03T11:47:54.271Z,44.16
2018-08-03T11:53:12.647Z,42.42
2018-08-03T11:55:47.341Z,42.58
2018-08-03T11:58:17.546Z,44.20
2018-08-03T12:00:49.583Z,45.84
2018-08-03T12:03:20.654Z,47.18
2018-08-03T12:05:58.354Z,44.89
2018-08-03T12:08:35.490Z,43.72
2018-08-03T12:11:09.016Z,42.04
2018-08-03T12:13:41.134Z,42.91
2018-08-03T12:16:12.360Z,42.07
2018-08-03T12:18:43.743Z,41.27
2018-08-03T12:21:15.630Z,41.67
2018-08-03T12:23:47.247Z,45.79
2018-08-03T12:26:19.697Z,51.20
2018-08-03T12:28:53.534Z,55.20
2018-08-03T12:31:23.966Z,56.41
2018-08-03T12:40:45.997Z,54.68
2018-08-03T12:43:26.044Z,53.96
2018-08-03T12:45:58.507Z,53.50
2018-08-03T12:48:34.892Z,53.18
2018-08-03T12:51:12.234Z,51.63
2018-08-03T12:53:46.725Z,47.87
2018-08-03T12:56:19.793Z,45.09
2018-08-03T12:58:54.153Z,41.26
2018-08-03T13:01:28.138Z,46.19
2018-08-03T13:04:06.846Z,48.66
2018-08-03T13:06:40.942Z,48.74
2018-08-03T13:09:12.900Z,48.08
2018-08-03T13:11:46.808Z,49.04
2018-08-03T13:14:25.168Z,49.97
2018-08-03T13:16:59.428Z,49.01
2018-08-03T13:19:33.681Z,45.14
2018-08-03T13:22:06.463Z,40.16
2018-08-03T13:24:44.680Z,38.42
2018-08-03T13:27:15.735Z,37.64
2018-08-03T13:29:49.345Z,37.51
2018-08-03T13:32:19.728Z,37.92
2018-08-03T13:34:55.121Z,38.51
2018-08-03T13:37:26.551Z,39.99
2018-08-03T13:39:59.325Z,41.02
2018-08-03T13:42:32.805Z,39.85
2018-08-03T13:45:09.478Z,39.98
2018-08-03T13:47:40.963Z,38.84
2018-08-03T13:50:13.404Z,39.62
2018-08-03T13:52:49.249Z,40.30
2018-08-03T13:55:22.746Z,41.10
2018-08-03T13:57:53.948Z,40.53
2018-08-03T14:00:26.725Z,38.45
2018-08-03T14:03:01.688Z,40.04
2018-08-03T14:05:35.045Z,40.75
2018-08-03T14:08:07.095Z,41.13
2018-08-03T14:10:41.590Z,39.37
2018-08-03T14:13:16.888Z,36.88
2018-08-03T14:15:55.570Z,35.31
2018-08-03T14:18:28.537Z,33.57
2018-08-03T14:21:01.817Z,34.38
2018-08-03T14:23:37.418Z,35.69
2018-08-03T14:26:19.337Z,34.80
2018-08-03T14:28:51.660Z,35.77
2018-08-03T14:31:22.566Z,37.88
2018-08-03T14:33:58.500Z,38.88
2018-08-03T14:36:33.669Z,39.81
2018-08-03T14:39:09.115Z,39.29
2018-08-03T14:41:41.952Z,40.00
2018-08-03T14:46:57.018Z,36.94
2018-08-03T14:49:32.912Z,38.07
2018-08-03T14:52:05.924Z,38.46
2018-08-03T14:54:39.132Z,39.19
2018-08-03T14:57:13.252Z,39.61
2018-08-03T14:59:48.868Z,37.41
2018-08-03T15:02:26.362Z,36.04
2018-08-03T15:05:05.073Z,34.40
2018-08-03T15:07:40.460Z,33.54
2018-08-03T15:10:16.276Z,35.65
2018-08-03T15:12:52.353Z,37.63
2018-08-03T15:15:28.059Z,38.13
2018-08-03T15:18:01.289Z,39.97
2018-08-03T15:20:40.116Z,41.12
2018-08-03T15:23:15.445Z,42.77
2018-08-03T15:25:56.200Z,42.95
2018-08-03T15:28:31.263Z,43.01
2018-08-03T15:31:01.943Z,41.87
2018-08-03T15:33:33.061Z,42.62
2018-08-03T15:36:08.918Z,43.02
2018-08-03T15:38:50.302Z,43.06
2018-08-03T15:41:27.066Z,43.41
2018-08-03T15:44:01.229Z,42.60
2018-08-03T15:46:35.969Z,42.10
2018-08-03T15:49:07.184Z,40.69
2018-08-03T15:51:41.941Z,41.27
2018-08-03T15:54:14.172Z,41.37
2018-08-03T15:56:48.854Z,42.34
2018-08-03T15:59:20.532Z,42.77
2018-08-03T16:01:52.335Z,43.78
2018-08-03T16:04:26.546Z,43.76
2018-08-03T16:07:00.132Z,44.63
2018-08-03T16:09:35.098Z,45.43
2018-08-03T16:12:07.971Z,45.30
2018-08-03T16:14:41.040Z,45.45
2018-08-03T16:17:15.134Z,45.92
2018-08-03T16:19:48.522Z,46.05
2018-08-03T16:22:21.778Z,45.17
2018-08-03T16:24:58.930Z,43.74
2018-08-03T16:27:34.407Z,42.79
2018-08-03T16:30:10.085Z,42.16
2018-08-03T16:32:41.846Z,42.74
2018-08-03T16:35:14.219Z,42.21
2018-08-03T16:37:47.172Z,42.16
2018-08-03T16:40:22.430Z,42.45
2018-08-03T16:42:59.581Z,43.61
2018-08-03T16:45:30.684Z,44.37
2018-08-03T16:48:06.393Z,45.94
2018-08-03T16:50:39.358Z,47.66
2018-08-03T16:53:15.810Z,48.41
2018-08-03T16:55:49.250Z,48.34
2018-08-03T16:58:22.452Z,48.39
2018-08-03T17:00:58.731Z,48.61
2018-08-03T17:03:36.764Z,48.72
2018-08-03T17:06:08.777Z,48.98
2018-08-03T17:08:41.620Z,49.07
2018-08-03T17:11:14.069Z,48.89
2018-08-03T17:13:45.866Z,48.44
2018-08-03T17:16:18.349Z,48.64
2018-08-03T17:18:50.726Z,48.54
2018-08-03T17:21:24.017Z,48.57
2018-08-03T17:23:54.571Z,49.43
2018-08-03T17:26:26.199Z,49.41
2018-08-03T17:29:04.311Z,49.79
2018-08-03T17:31:36.217Z,50.04
2018-08-03T17:34:08.988Z,50.37
2018-08-03T17:36:43.449Z,50.96
2018-08-03T17:39:15.311Z,51.41
2018-08-03T17:41:46.466Z,51.63
2018-08-03T17:44:20.130Z,51.87
2018-08-03T17:46:52.939Z,51.98
2018-08-03T17:49:25.820Z,52.94
2018-08-03T17:51:57.371Z,53.23
2018-08-03T17:54:29.779Z,54.44
2018-08-03T17:57:03.315Z,54.80
2018-08-03T17:59:34.990Z,55.03
2018-08-03T18:02:12.839Z,55.65
2018-08-03T18:04:46.980Z,56.21
2018-08-03T18:07:21.271Z,56.05
2018-08-03T18:09:55.813Z,56.36
2018-08-03T18:12:33.279Z,57.43
2018-08-03T18:15:06.206Z,58.36
2018-08-03T18:17:36.407Z,59.33
2018-08-03T18:20:13.294Z,58.50
2018-08-03T18:23:01.873Z,58.19
2018-08-03T18:25:34.709Z,57.73
2018-08-03T18:28:07.984Z,57.90
2018-08-03T18:30:39.151Z,57.78
2018-08-03T18:33:11.555Z,56.99
2018-08-03T18:35:44.484Z,56.79
2018-08-03T18:38:16.971Z,56.37
2018-08-03T18:40:49.665Z,56.74
2018-08-03T18:43:30.844Z,55.42
2018-08-03T18:46:04.517Z,56.34
2018-08-03T18:48:36.265Z,56.16
2018-08-03T18:51:13.624Z,55.77
2018-08-03T18:53:47.440Z,55.54
2018-08-03T18:56:20.475Z,55.52
2018-08-03T18:58:55.618Z,55.25
2018-08-03T19:01:32.353Z,55.52
2018-08-03T19:04:04.542Z,55.51
2018-08-03T19:06:39.516Z,55.28
2018-08-03T19:09:15.772Z,55.49
2018-08-03T19:11:49.941Z,55.20
2018-08-03T19:14:21.724Z,55.38
2018-08-03T19:16:56.205Z,55.46
2018-08-03T19:19:28.395Z,55.30
2018-08-03T19:21:58.195Z,55.55
2018-08-03T19:24:36.038Z,56.09
2018-08-03T19:27:11.966Z,55.87
2018-08-03T19:29:52.482Z,56.43
2018-08-03T19:32:23.175Z,56.70
2018-08-03T19:34:58.354Z,56.54
2018-08-03T19:37:31.128Z,57.55
2018-08-03T19:40:07.263Z,57.59
2018-08-03T19:42:44.239Z,58.11
2018-08-03T19:45:26.822Z,58.28
2018-08-03T19:47:59.974Z,58.90
2018-08-03T19:50:46.348Z,59.06
2018-08-03T19:53:17.986Z,59.58
2018-08-03T19:55:52.618Z,60.30
2018-08-03T19:58:30.547Z,60.80
2018-08-03T20:01:01.639Z,60.82
2018-08-03T20:03:35.241Z,60.39
2018-08-03T20:08:52.122Z,59.71
2018-08-03T20:11:25.307Z,60.79
2018-08-03T20:13:57.613Z,60.69
2018-08-03T20:16:33.554Z,60.78
2018-08-03T20:19:04.161Z,60.51
2018-08-03T20:21:34.688Z,61.81
2018-08-03T20:24:11.000Z,62.06
2018-08-03T20:26:43.392Z,62.03
2018-08-03T20:29:15.793Z,62.46
2018-08-03T20:31:48.627Z,62.91
2018-08-03T20:34:21.868Z,62.88
2018-08-03T20:36:56.678Z,62.42
2018-08-03T20:39:30.412Z,62.37
2018-08-03T20:42:04.727Z,62.40
2018-08-03T20:44:36.772Z,62.81
2018-08-03T20:47:07.412Z,62.63
2018-08-03T20:49:41.742Z,62.90
2018-08-03T20:52:15.417Z,62.40
2018-08-03T20:54:49.590Z,61.81
2018-08-03T20:57:24.344Z,62.61
2018-08-03T20:59:56.747Z,62.62
2018-08-03T21:02:28.095Z,62.71
2018-08-03T21:05:00.994Z,62.04
2018-08-03T21:07:32.301Z,62.66
2018-08-03T21:10:06.106Z,63.43
2018-08-03T21:12:40.323Z,63.27
2018-08-03T21:15:15.006Z,62.66
2018-08-03T21:17:45.727Z,62.44
2018-08-03T21:20:16.489Z,62.24
2018-08-03T21:22:50.601Z,62.17
2018-08-03T21:25:20.859Z,61.47
2018-08-03T21:27:54.512Z,61.14
2018-08-03T21:30:26.036Z,60.46
2018-08-03T21:32:59.006Z,60.29
2018-08-03T21:35:32.847Z,60.71
2018-08-03T21:38:04.417Z,60.02
2018-08-03T21:40:41.788Z,60.07
2018-08-03T21:43:15.866Z,59.63
2018-08-03T21:45:47.108Z,59.55
2018-08-03T21:48:21.223Z,60.41
2018-08-03T21:50:51.823Z,59.55
2018-08-03T21:53:25.425Z,60.89
2018-08-03T21:55:58.399Z,60.73
2018-08-03T21:58:31.052Z,60.46
2018-08-03T22:01:08.069Z,61.33
2018-08-03T22:03:41.666Z,61.76
2018-08-03T22:06:15.505Z,61.20
2018-08-03T22:08:49.010Z,61.14
2018-08-03T22:11:20.663Z,61.27
2018-08-03T22:14:04.679Z,60.55
2018-08-03T22:16:37.602Z,60.29
2018-08-03T22:19:09.147Z,60.57
2018-08-03T22:21:38.507Z,60.96
2018-08-03T22:24:09.130Z,61.49
2018-08-03T22:26:44.643Z,61.81
2018-08-03T22:29:20.438Z,62.24
2018-08-03T22:31:54.149Z,62.79
2018-08-03T22:34:27.767Z,63.69
2018-08-03T22:37:03.760Z,63.09
2018-08-03T22:39:33.701Z,63.56
2018-08-03T22:42:04.833Z,63.20
2018-08-03T22:44:37.777Z,63.08
2018-08-03T22:47:11.115Z,63.32
2018-08-03T22:50:12.595Z,63.63
2018-08-03T22:52:48.151Z,64.54
2018-08-03T22:55:24.480Z,64.25
2018-08-03T22:57:54.558Z,64.71
2018-08-03T23:00:33.828Z,64.98
2018-08-03T23:03:09.251Z,64.84
2018-08-03T23:05:44.811Z,65.41
2018-08-03T23:08:17.441Z,65.68
2018-08-03T23:10:51.894Z,65.53
2018-08-03T23:13:29.064Z,65.42
2018-08-03T23:16:03.443Z,66.28
2018-08-03T23:18:45.941Z,66.28
2018-08-03T23:21:16.874Z,66.46
2018-08-03T23:23:50.671Z,66.66
2018-08-03T23:26:23.255Z,66.66
2018-08-03T23:31:38.877Z,67.51
2018-08-03T23:34:16.590Z,67.37
2018-08-03T23:36:47.696Z,66.86
2018-08-03T23:39:24.647Z,66.61
2018-08-03T23:42:00.482Z,66.89
2018-08-03T23:44:32.108Z,66.84
2018-08-03T23:47:03.610Z,66.84
2018-08-03T23:49:37.317Z,67.37
2018-08-03T23:52:07.823Z,66.68
2018-08-03T23:54:39.241Z,65.90
2018-08-03T23:57:13.826Z,65.07
2018-08-03T23:59:44.275Z,65.84
